Terminal Aerodrome Forecast
Issued by NWS

Current Version | Previous Version | Text Only | Print | Product List | Glossary On
Versions: 1 2 3 4 5 6 7 8 9 10 11 12 13 14 15 16 17 18 19 20
000 FTUS41 KBTV 300537 TAFMPV TAF KMPV 300537Z 3006/0106 VRB03KT P6SM BKN130 BKN200 FM301500 13007KT P6SM OVC150 FM010000 16004KT P6SM OVC100 FM010300 16004KT P6SM OVC070=

USA.gov is the U.S. government's official web portal to all federal, state and local government web resources and services.